Time,TemperatureF,DewpointF,PressureIn,WindDirection,WindDirectionDegrees,WindSpeedMPH,WindSpeedGustMPH,Humidity,HourlyPrecipIn,Conditions,Clouds,dailyrainin,SoftwareType,DateUTC
2013-11-09 00:23:00,41.0,32.0,30.16,SSE,157,0.0,0.0,71,0.00,,,0.00,,2013-11-09 05:23:00,
2013-11-09 00:53:00,41.0,32.0,30.15,SSW,202,0.0,0.0,71,0.00,,,0.00,,2013-11-09 05:53:00,
2013-11-09 01:22:00,41.0,32.0,30.14,SW,225,0.0,0.0,71,0.00,,,0.00,,2013-11-09 06:22:00,
2013-11-09 01:54:00,40.0,31.0,30.12,South,180,0.0,0.0,71,0.00,,,0.00,,2013-11-09 06:54:00,
2013-11-09 02:22:00,41.0,32.0,30.11,SSE,157,0.0,0.0,70,0.00,,,0.00,,2013-11-09 07:22:00,
2013-11-09 02:52:00,40.0,31.0,30.10,South,180,0.0,0.0,70,0.00,,,0.00,,2013-11-09 07:52:00,
2013-11-09 03:21:00,41.0,32.0,30.09,ESE,112,0.0,0.0,70,0.00,,,0.00,,2013-11-09 08:21:00,
2013-11-09 03:52:00,40.0,31.0,30.08,SSW,202,0.0,0.0,70,0.00,,,0.00,,2013-11-09 08:52:00,
2013-11-09 04:22:00,40.0,31.0,30.07,SSE,157,0.0,0.0,71,0.00,,,0.00,,2013-11-09 09:22:00,
2013-11-09 04:53:00,41.0,32.0,30.06,WNW,292,0.0,0.0,70,0.00,,,0.00,,2013-11-09 09:53:00,
2013-11-09 05:23:00,42.0,32.0,30.05,SSE,157,0.0,0.0,68,0.00,,,0.00,,2013-11-09 10:23:00,
2013-11-09 05:32:00,42.0,32.0,30.05,SSE,157,0.0,0.0,68,0.00,,,0.00,,2013-11-09 10:32:00,
2013-11-09 05:52:00,42.0,32.0,30.04,WNW,292,0.0,0.0,67,0.00,,,0.00,,2013-11-09 10:52:00,
2013-11-09 06:22:00,42.0,31.0,30.04,WNW,292,0.0,0.0,66,0.00,,,0.00,,2013-11-09 11:22:00,
2013-11-09 06:52:00,42.0,31.0,30.03,South,180,0.0,0.0,66,0.00,,,0.00,,2013-11-09 11:52:00,
2013-11-09 07:22:00,42.0,32.0,30.03,WNW,292,0.0,0.0,67,0.00,,,0.00,,2013-11-09 12:22:00,
2013-11-09 07:52:00,42.0,31.0,30.03,West,270,0.0,0.0,66,0.00,,,0.00,,2013-11-09 12:52:00,
2013-11-09 08:22:00,43.0,32.0,30.02,West,270,0.0,0.0,66,0.00,,,0.00,,2013-11-09 13:22:00,
2013-11-09 08:52:00,44.0,33.0,30.02,WSW,247,0.0,0.0,66,0.00,,,0.00,,2013-11-09 13:52:00,
2013-11-09 09:22:00,46.0,35.0,30.03,NW,315,0.0,0.0,65,0.00,,,0.00,,2013-11-09 14:22:00,
2013-11-09 09:52:00,50.0,37.0,30.02,NW,315,0.0,0.0,61,0.00,,,0.00,,2013-11-09 14:52:00,
2013-11-09 10:22:00,50.0,38.0,30.01,WSW,247,0.0,0.0,62,0.00,,,0.00,,2013-11-09 15:22:00,
2013-11-09 10:54:00,52.0,39.0,30.00,SW,225,0.0,0.0,62,0.00,,,0.00,,2013-11-09 15:54:00,
2013-11-09 11:24:00,54.0,41.0,30.00,WSW,247,0.0,0.0,61,0.00,,,0.00,,2013-11-09 16:24:00,
2013-11-09 11:53:00,53.0,39.0,29.99,West,270,0.0,0.0,60,0.00,,,0.00,,2013-11-09 16:53:00,
2013-11-09 12:24:00,53.0,39.0,29.99,West,270,0.0,0.0,59,0.00,,,0.00,,2013-11-09 17:24:00,
2013-11-09 12:52:00,52.0,38.0,29.97,SW,225,0.0,0.0,58,0.00,,,0.00,,2013-11-09 17:52:00,
2013-11-09 13:23:00,52.0,37.0,29.96,SW,225,0.0,0.0,57,0.00,,,0.00,,2013-11-09 18:23:00,
2013-11-09 13:52:00,52.0,36.0,29.96,NW,315,0.0,0.0,55,0.00,,,0.00,,2013-11-09 18:52:00,
2013-11-09 14:23:00,53.0,37.0,29.96,WSW,247,0.0,0.0,54,0.00,,,0.00,,2013-11-09 19:23:00,
2013-11-09 14:52:00,53.0,36.0,29.95,WSW,247,0.0,0.0,53,0.00,,,0.00,,2013-11-09 19:52:00,
2013-11-09 15:22:00,54.0,37.0,29.96,WNW,292,0.0,0.0,53,0.00,,,0.00,,2013-11-09 20:22:00,
2013-11-09 15:52:00,56.0,38.0,29.96,WNW,292,0.0,0.0,51,0.00,,,0.00,,2013-11-09 20:52:00,
2013-11-09 16:22:00,57.0,39.0,29.96,WNW,292,0.0,0.0,50,0.00,,,0.00,,2013-11-09 21:22:00,
2013-11-09 16:54:00,58.0,40.0,29.96,West,270,0.0,0.0,51,0.00,,,0.00,,2013-11-09 21:54:00,
2013-11-09 17:24:00,59.0,41.0,29.97,WNW,292,0.0,0.0,52,0.00,,,0.00,,2013-11-09 22:24:00,
2013-11-09 17:43:00,58.0,41.0,29.97,WNW,292,0.0,0.0,53,0.00,,,0.00,,2013-11-09 22:43:00,
2013-11-09 17:54:00,57.0,41.0,29.97,WNW,292,0.0,0.0,55,0.00,,,0.00,,2013-11-09 22:54:00,
2013-11-09 18:22:00,56.0,41.0,29.99,West,270,0.0,0.0,56,0.00,,,0.00,,2013-11-09 23:22:00,
2013-11-09 18:53:00,55.0,40.0,30.00,WNW,292,0.0,0.0,56,0.00,,,0.00,,2013-11-09 23:53:00,
2013-11-09 19:22:00,55.0,39.0,30.01,West,270,0.0,0.0,55,0.00,,,0.00,,2013-11-10 00:22:00,
2013-11-09 19:52:00,54.0,39.0,30.02,WNW,292,0.0,0.0,56,0.00,,,0.00,,2013-11-10 00:52:00,
2013-11-09 20:22:00,53.0,38.0,30.03,West,270,0.0,0.0,57,0.00,,,0.00,,2013-11-10 01:22:00,
2013-11-09 20:52:00,52.0,38.0,30.03,NW,315,0.0,0.0,59,0.00,,,0.00,,2013-11-10 01:52:00,
2013-11-09 21:22:00,52.0,39.0,30.04,West,270,0.0,0.0,60,0.00,,,0.00,,2013-11-10 02:22:00,
2013-11-09 21:52:00,51.0,38.0,30.05,WNW,292,0.0,0.0,61,0.00,,,0.00,,2013-11-10 02:52:00,
2013-11-09 22:22:00,50.0,38.0,30.05,NW,315,0.0,0.0,63,0.00,,,0.00,,2013-11-10 03:22:00,
2013-11-09 22:54:00,50.0,38.0,30.06,WNW,292,0.0,0.0,63,0.00,,,0.00,,2013-11-10 03:54:00,
2013-11-09 23:02:00,-999.0,-99.9,30.06,NW,315,0.0,0.0,-999,-99.99,,,-99.99,,2013-11-10 04:02:00,
2013-11-09 23:23:00,49.0,37.0,30.06,NW,315,0.0,0.0,63,0.00,,,0.00,,2013-11-10 04:23:00,
2013-11-09 23:52:00,48.0,36.0,30.07,WNW,292,0.0,0.0,64,0.00,,,0.00,,2013-11-10 04:52:00,